createdAt,value
2023-01-19T00:02:14.713Z,98790.38
2023-01-19T00:05:03.936Z,98785.63
2023-01-19T00:07:51.908Z,98792.03
2023-01-19T00:10:41.473Z,98792.25
2023-01-19T00:13:29.512Z,98792.53
2023-01-19T00:16:18.587Z,98790.28
2023-01-19T00:19:06.515Z,98789.16
2023-01-19T00:21:54.570Z,98790.69
2023-01-19T00:24:42.722Z,98786.22
2023-01-19T00:27:34.937Z,98794.31
2023-01-19T00:30:22.969Z,98794.59
2023-01-19T00:33:13.649Z,98797.78
2023-01-19T00:36:01.574Z,98798.59
2023-01-19T00:38:49.464Z,98786.09
2023-01-19T00:41:57.188Z,98812.94
2023-01-19T00:44:46.521Z,98820.09
2023-01-19T00:47:34.529Z,98813.59
2023-01-19T00:50:22.427Z,98811.91
2023-01-19T00:53:10.450Z,98819.47
2023-01-19T00:55:58.369Z,98819.00
2023-01-19T00:58:46.260Z,98816.66
2023-01-19T01:01:45.841Z,98820.03
2023-01-19T01:04:35.382Z,98797.19
2023-01-19T01:07:23.612Z,98821.88
2023-01-19T01:10:13.895Z,98827.03
2023-01-19T01:13:19.968Z,98824.34
2023-01-19T01:16:09.886Z,98832.13
2023-01-19T01:18:59.235Z,98825.72
2023-01-19T01:21:47.218Z,98826.63
2023-01-19T01:24:35.170Z,98838.72
2023-01-19T01:27:23.199Z,98841.16
2023-01-19T01:30:15.069Z,98783.78
2023-01-19T01:33:03.249Z,98847.47
2023-01-19T01:35:52.906Z,98853.97
2023-01-19T01:38:41.915Z,98854.31
2023-01-19T01:41:29.891Z,98855.19
2023-01-19T01:44:50.672Z,98853.41
2023-01-19T01:47:43.539Z,98829.50
2023-01-19T01:50:35.020Z,98847.72
2023-01-19T01:53:24.285Z,98857.28
2023-01-19T01:56:16.258Z,98853.81
2023-01-19T01:59:07.480Z,98856.75
2023-01-19T02:02:16.007Z,98861.63
2023-01-19T02:05:08.971Z,98856.97
2023-01-19T02:08:20.990Z,98763.13
2023-01-19T02:11:28.157Z,98854.63
2023-01-19T02:14:16.080Z,98849.66
2023-01-19T02:17:04.177Z,98849.44
2023-01-19T02:19:52.143Z,98852.16
2023-01-19T02:22:48.032Z,98853.47
2023-01-19T02:25:37.333Z,98854.94
2023-01-19T02:28:26.209Z,98852.38
2023-01-19T02:31:15.098Z,98847.63
2023-01-19T02:34:04.661Z,98852.50
2023-01-19T02:36:56.567Z,98845.28
2023-01-19T02:39:50.574Z,98838.97
2023-01-19T02:42:44.677Z,98834.91
2023-01-19T02:45:32.773Z,98837.38
2023-01-19T02:48:22.031Z,98843.38
2023-01-19T02:51:15.478Z,98839.88
2023-01-19T02:54:23.986Z,98835.94
2023-01-19T02:57:39.175Z,98837.28
2023-01-19T03:00:37.587Z,98821.88
2023-01-19T03:03:33.778Z,98839.69
2023-01-19T03:06:33.192Z,98841.06
2023-01-19T03:09:28.298Z,98847.88
2023-01-19T03:12:26.216Z,98842.25
2023-01-19T03:15:19.854Z,98854.75
2023-01-19T03:18:11.642Z,98852.03
2023-01-19T03:21:06.963Z,98854.28
2023-01-19T03:23:59.551Z,98839.19
2023-01-19T03:26:52.886Z,98854.84
2023-01-19T03:29:43.975Z,98851.78
2023-01-19T03:32:36.348Z,98851.25
2023-01-19T03:35:29.936Z,98849.19
2023-01-19T03:38:23.142Z,98827.53
2023-01-19T03:41:15.474Z,98864.78
2023-01-19T03:44:05.561Z,98866.66
2023-01-19T03:46:53.788Z,98870.97
2023-01-19T03:49:44.061Z,98881.47
2023-01-19T03:52:34.389Z,98878.63
2023-01-19T03:55:22.364Z,98879.84
2023-01-19T03:58:10.485Z,98879.53
2023-01-19T04:00:58.453Z,98883.28
2023-01-19T04:03:47.178Z,98875.16
2023-01-19T04:06:35.188Z,98872.88
2023-01-19T04:09:24.760Z,98878.97
2023-01-19T04:12:12.642Z,98875.94
2023-01-19T04:15:00.575Z,98875.72
2023-01-19T04:17:48.514Z,98877.16
2023-01-19T04:20:36.408Z,98869.72
2023-01-19T04:23:24.352Z,98864.06
2023-01-19T04:26:13.955Z,98862.53
2023-01-19T04:29:01.871Z,98863.41
2023-01-19T04:31:49.775Z,98859.91
2023-01-19T04:34:37.645Z,98858.34
2023-01-19T04:37:25.573Z,98857.66
2023-01-19T04:40:13.828Z,98862.50
2023-01-19T04:43:03.560Z,98862.38
2023-01-19T04:45:52.147Z,98859.34
2023-01-19T04:48:41.323Z,98851.22
2023-01-19T04:51:30.090Z,98860.34
2023-01-19T04:54:18.041Z,98866.06
2023-01-19T04:57:06.073Z,98877.19
2023-01-19T04:59:55.514Z,98873.84
2023-01-19T05:02:45.116Z,98880.94
2023-01-19T05:05:33.179Z,98875.41
2023-01-19T05:08:21.362Z,98880.97
2023-01-19T05:11:09.303Z,98885.63
2023-01-19T05:13:58.344Z,98860.34
2023-01-19T05:16:47.881Z,98887.72
2023-01-19T05:19:35.989Z,98886.50
2023-01-19T05:22:24.344Z,98893.38
2023-01-19T05:25:12.295Z,98888.19
2023-01-19T05:28:00.247Z,98876.78
2023-01-19T05:30:49.979Z,98889.50
2023-01-19T05:33:39.269Z,98889.38
2023-01-19T05:36:27.195Z,98887.63
2023-01-19T05:39:15.316Z,98894.69
2023-01-19T05:42:03.252Z,98894.00
2023-01-19T05:44:51.193Z,98888.28
2023-01-19T05:47:40.318Z,98895.78
2023-01-19T05:50:29.643Z,98887.22
2023-01-19T05:53:18.105Z,98878.69
2023-01-19T05:56:08.456Z,98889.38
2023-01-19T05:58:56.467Z,98887.22
2023-01-19T06:01:44.639Z,98888.69
2023-01-19T06:04:33.111Z,98876.16
2023-01-19T06:07:24.279Z,98870.50
2023-01-19T06:10:12.695Z,98886.25
2023-01-19T06:13:00.839Z,98879.75
2023-01-19T06:15:48.939Z,98889.78
2023-01-19T06:18:37.149Z,98898.84
2023-01-19T06:21:25.146Z,98905.84
2023-01-19T06:24:14.690Z,98916.00
2023-01-19T06:27:02.632Z,98906.97
2023-01-19T06:29:50.566Z,98920.28
2023-01-19T06:32:38.511Z,98927.91
2023-01-19T06:35:26.970Z,98922.41
2023-01-19T06:38:15.468Z,98932.31
2023-01-19T06:41:04.994Z,98935.47
2023-01-19T06:43:52.923Z,98940.50
2023-01-19T06:46:40.827Z,98937.38
2023-01-19T06:49:29.020Z,98944.66
2023-01-19T06:52:18.321Z,98943.91
2023-01-19T06:55:10.599Z,98945.66
2023-01-19T06:58:01.267Z,98958.81
2023-01-19T07:00:50.306Z,98961.09
2023-01-19T07:03:38.582Z,98963.03
2023-01-19T07:06:26.601Z,98963.06
2023-01-19T07:09:16.786Z,98962.34
2023-01-19T07:12:06.152Z,98958.44
2023-01-19T07:14:55.587Z,98888.19
2023-01-19T07:17:43.873Z,98963.69
2023-01-19T07:20:31.837Z,98958.22
2023-01-19T07:23:19.742Z,98954.50
2023-01-19T07:26:07.803Z,98963.53
2023-01-19T07:28:55.879Z,98957.34
2023-01-19T07:31:45.552Z,98964.69
2023-01-19T07:34:34.431Z,98962.84
2023-01-19T07:37:22.395Z,98981.09
2023-01-19T07:40:11.416Z,98976.69
2023-01-19T07:42:59.621Z,98970.88
2023-01-19T07:45:47.784Z,98978.81
2023-01-19T07:48:37.132Z,98984.13
2023-01-19T07:51:25.061Z,98995.25
2023-01-19T07:54:13.126Z,99000.44
2023-01-19T07:57:01.684Z,99000.34
2023-01-19T07:59:49.696Z,99004.44
2023-01-19T08:02:37.896Z,99014.34
2023-01-19T08:05:28.892Z,99013.53
2023-01-19T08:08:16.842Z,99018.59
2023-01-19T08:11:04.893Z,99005.63
2023-01-19T08:13:52.847Z,98922.59
2023-01-19T08:16:40.817Z,99013.06
2023-01-19T08:19:28.767Z,99011.41
2023-01-19T08:22:18.174Z,99018.41
2023-01-19T08:25:06.907Z,99024.94
2023-01-19T08:27:56.384Z,99014.13
2023-01-19T08:30:45.448Z,99008.63
2023-01-19T08:33:33.459Z,99013.16
2023-01-19T08:36:22.570Z,99012.06
2023-01-19T08:39:13.173Z,99013.88
2023-01-19T08:42:01.115Z,99009.50
2023-01-19T08:44:57.730Z,99011.22
2023-01-19T08:47:46.169Z,99017.91
2023-01-19T08:50:35.194Z,99014.97
2023-01-19T08:53:24.408Z,99012.03
2023-01-19T08:56:14.354Z,98978.16
2023-01-19T08:59:09.893Z,99020.28
2023-01-19T09:01:58.508Z,99012.38
2023-01-19T09:04:46.523Z,99018.47
2023-01-19T09:07:35.701Z,99023.22
2023-01-19T09:10:23.874Z,99023.34
2023-01-19T09:13:13.932Z,99026.63
2023-01-19T09:16:03.573Z,99030.78
2023-01-19T09:18:51.496Z,99023.78
2023-01-19T09:21:39.405Z,99028.53
2023-01-19T09:24:27.607Z,99026.03
2023-01-19T09:27:15.523Z,99032.16
2023-01-19T09:30:06.946Z,99027.50
2023-01-19T09:32:55.137Z,99024.91
2023-01-19T09:35:43.796Z,99041.53
2023-01-19T09:38:32.896Z,99020.63
2023-01-19T09:41:23.289Z,99014.41
2023-01-19T09:44:17.555Z,99009.88
2023-01-19T09:47:15.188Z,99012.56
2023-01-19T09:50:06.669Z,99014.13
2023-01-19T09:53:01.209Z,99008.31
2023-01-19T09:55:49.958Z,99014.06
2023-01-19T09:58:37.964Z,99006.97
2023-01-19T10:01:38.878Z,99011.47
2023-01-19T10:04:32.388Z,99014.63
2023-01-19T10:07:33.642Z,98917.38
2023-01-19T10:10:23.617Z,99012.38
2023-01-19T10:13:25.823Z,99032.47
2023-01-19T10:16:27.091Z,99028.06
2023-01-19T10:19:22.853Z,99034.13
2023-01-19T10:22:21.706Z,99040.81
2023-01-19T10:25:18.506Z,99035.41
2023-01-19T10:28:06.519Z,99037.09
2023-01-19T10:30:55.864Z,99035.16
2023-01-19T10:33:43.812Z,99042.06
2023-01-19T10:36:37.267Z,99043.94
2023-01-19T10:39:26.696Z,99031.44
2023-01-19T10:42:17.222Z,99028.63
2023-01-19T10:45:15.496Z,99042.56
2023-01-19T10:48:08.203Z,99037.09
2023-01-19T10:51:03.628Z,99037.75
2023-01-19T10:54:00.866Z,99041.66
2023-01-19T10:56:55.608Z,99042.97
2023-01-19T10:59:50.698Z,99035.91
2023-01-19T11:02:38.894Z,99037.13
2023-01-19T11:05:28.997Z,99036.16
2023-01-19T11:08:24.436Z,99028.31
2023-01-19T11:11:12.908Z,99028.47
2023-01-19T11:14:10.818Z,99033.81
2023-01-19T11:16:59.855Z,99025.56
2023-01-19T11:19:56.948Z,99034.88
2023-01-19T11:22:44.945Z,99029.69
2023-01-19T11:25:35.004Z,99041.56
2023-01-19T11:28:28.553Z,99030.50
2023-01-19T11:31:32.807Z,99034.66
2023-01-19T11:34:27.721Z,99034.53
2023-01-19T11:37:31.232Z,99035.44
2023-01-19T11:40:19.285Z,99024.53
2023-01-19T11:43:10.982Z,99033.94
2023-01-19T11:45:59.723Z,99020.16
2023-01-19T11:48:57.169Z,99026.78
2023-01-19T11:51:51.899Z,99024.94
2023-01-19T11:54:56.062Z,99018.50
2023-01-19T11:57:47.849Z,99022.25
2023-01-19T12:00:39.220Z,99013.06
2023-01-19T12:03:31.638Z,99018.25
2023-01-19T12:06:25.373Z,99015.34
2023-01-19T12:09:19.193Z,99021.50
2023-01-19T12:12:12.718Z,99013.91
2023-01-19T12:15:06.155Z,99008.53
2023-01-19T12:17:58.793Z,99011.28
2023-01-19T12:20:50.774Z,99001.22
2023-01-19T12:23:52.253Z,99008.91
2023-01-19T12:26:49.754Z,99007.44
2023-01-19T12:29:38.021Z,99007.34
2023-01-19T12:32:34.815Z,99004.31
2023-01-19T12:35:58.501Z,99009.13
2023-01-19T12:38:53.415Z,99007.44
2023-01-19T12:41:42.757Z,98994.31
2023-01-19T12:44:34.061Z,98996.97
2023-01-19T12:47:24.388Z,98997.25
2023-01-19T12:50:19.009Z,99000.34
2023-01-19T12:53:18.479Z,99001.41
2023-01-19T12:56:10.082Z,98995.25
2023-01-19T12:58:58.326Z,98995.53
2023-01-19T13:02:25.180Z,98989.06
2023-01-19T13:05:57.682Z,98996.53
2023-01-19T13:09:00.168Z,98995.97
2023-01-19T13:12:20.141Z,98991.25
2023-01-19T13:15:29.187Z,98991.03
2023-01-19T13:18:19.640Z,98986.53
2023-01-19T13:21:09.687Z,98992.72
2023-01-19T13:23:59.364Z,98965.91
2023-01-19T13:26:57.414Z,98992.19
2023-01-19T13:29:47.136Z,98997.19
2023-01-19T13:32:35.144Z,98998.56
2023-01-19T13:35:24.594Z,98983.78
2023-01-19T13:38:15.328Z,98998.56
2023-01-19T13:41:04.490Z,98990.38
2023-01-19T13:43:59.733Z,99006.38
2023-01-19T13:46:50.024Z,98994.41
2023-01-19T13:49:41.361Z,99003.06
2023-01-19T13:52:30.569Z,99002.47
2023-01-19T13:55:20.477Z,99007.81
2023-01-19T13:58:22.066Z,99010.72
2023-01-19T14:01:21.653Z,99013.59
2023-01-19T14:04:29.957Z,99014.63
2023-01-19T14:07:26.106Z,98982.28
2023-01-19T14:10:16.801Z,99019.34
2023-01-19T14:13:06.839Z,99015.91
2023-01-19T14:15:58.138Z,99022.25
2023-01-19T14:18:46.119Z,99019.19
2023-01-19T14:21:41.914Z,99021.63
2023-01-19T14:24:32.862Z,99029.09
2023-01-19T14:27:24.031Z,99011.00
2023-01-19T14:30:22.172Z,99019.09
2023-01-19T14:33:33.708Z,99030.22
2023-01-19T14:36:28.535Z,99025.00
2023-01-19T14:39:26.004Z,99027.94
2023-01-19T14:42:18.784Z,99029.28
2023-01-19T14:45:15.547Z,99019.69
2023-01-19T14:48:05.852Z,99030.94
2023-01-19T14:51:03.663Z,99036.16
2023-01-19T14:53:54.142Z,99034.97
2023-01-19T14:56:43.378Z,99041.63
2023-01-19T14:59:31.649Z,99037.44
2023-01-19T15:02:19.979Z,99040.75
2023-01-19T15:05:08.819Z,99042.84
2023-01-19T15:07:57.025Z,99047.22
2023-01-19T15:10:45.279Z,99050.28
2023-01-19T15:13:34.854Z,99044.09
2023-01-19T15:16:24.136Z,99042.84
2023-01-19T15:19:13.566Z,99045.03
2023-01-19T15:22:01.521Z,99045.22
2023-01-19T15:24:49.665Z,99041.50
2023-01-19T15:27:37.665Z,99042.00
2023-01-19T15:30:29.637Z,99043.84
2023-01-19T15:33:20.924Z,99048.91
2023-01-19T15:36:13.125Z,99055.41
2023-01-19T15:39:01.168Z,99059.41
2023-01-19T15:41:49.138Z,99049.13
2023-01-19T15:44:37.092Z,99053.25
2023-01-19T15:47:26.337Z,99052.59
2023-01-19T15:50:14.271Z,99051.91
2023-01-19T15:53:02.305Z,99058.75
2023-01-19T15:55:52.000Z,99064.19
2023-01-19T15:58:39.966Z,99062.72
2023-01-19T16:01:31.525Z,99061.00
2023-01-19T16:04:21.052Z,99063.38
2023-01-19T16:07:09.005Z,99058.63
2023-01-19T16:09:56.955Z,99070.25
2023-01-19T16:12:45.275Z,99072.88
2023-01-19T16:15:35.484Z,99072.66
2023-01-19T16:18:23.381Z,99076.16
2023-01-19T16:21:12.749Z,99084.88
2023-01-19T16:24:00.682Z,99081.72
2023-01-19T16:26:48.606Z,99085.31
2023-01-19T16:29:36.542Z,99083.97
2023-01-19T16:32:24.633Z,99080.59
2023-01-19T16:35:12.771Z,99080.59
2023-01-19T16:38:02.064Z,99086.69
2023-01-19T16:40:50.143Z,99085.81
2023-01-19T16:43:38.069Z,99088.50
2023-01-19T16:46:27.964Z,99087.25
2023-01-19T16:49:17.897Z,99070.75
2023-01-19T16:52:06.029Z,99086.69
2023-01-19T16:54:55.289Z,99089.94
2023-01-19T16:57:43.245Z,99082.25
2023-01-19T17:00:31.209Z,99086.22
2023-01-19T17:03:19.280Z,98991.53
2023-01-19T17:06:08.661Z,99088.25
2023-01-19T17:08:56.643Z,99089.59
2023-01-19T17:11:46.170Z,99089.81
2023-01-19T17:14:34.324Z,99087.78
2023-01-19T17:17:22.430Z,99095.94
2023-01-19T17:20:11.753Z,99102.91
2023-01-19T17:22:59.855Z,99101.41
2023-01-19T17:25:53.420Z,99090.13
2023-01-19T17:28:42.861Z,99097.16
2023-01-19T17:31:32.059Z,99088.22
2023-01-19T17:34:20.124Z,99099.97
2023-01-19T17:37:08.145Z,99109.56
2023-01-19T17:40:26.530Z,99106.28
2023-01-19T17:43:14.455Z,99101.41
2023-01-19T17:46:03.796Z,99107.66
2023-01-19T17:48:53.124Z,99108.09
2023-01-19T17:51:41.083Z,99075.06
2023-01-19T17:54:29.049Z,99106.38
2023-01-19T17:57:16.995Z,99101.31
2023-01-19T18:00:05.452Z,99108.31
2023-01-19T18:03:01.639Z,99117.31
2023-01-19T18:05:54.164Z,99111.78
2023-01-19T18:08:44.168Z,99117.97
2023-01-19T18:11:32.077Z,99113.81
2023-01-19T18:14:19.989Z,99117.72
2023-01-19T18:17:08.159Z,99124.66
2023-01-19T18:19:57.549Z,99116.38
2023-01-19T18:22:45.470Z,99119.34
2023-01-19T18:25:33.372Z,99128.56
2023-01-19T18:28:21.293Z,99123.75
2023-01-19T18:31:10.792Z,99118.78
2023-01-19T18:33:58.926Z,99118.91
2023-01-19T18:36:48.166Z,99126.56
2023-01-19T18:39:36.527Z,99124.41
2023-01-19T18:42:24.427Z,99128.13
2023-01-19T18:45:12.944Z,99136.06
2023-01-19T18:48:02.064Z,99131.63
2023-01-19T18:50:50.033Z,99141.34
2023-01-19T18:53:39.684Z,99131.22
2023-01-19T18:56:27.729Z,99129.72
2023-01-19T18:59:15.626Z,99125.84
2023-01-19T19:02:06.594Z,99128.81
2023-01-19T19:04:54.582Z,99130.38
2023-01-19T19:07:42.505Z,99127.59
2023-01-19T19:10:31.871Z,99137.03
2023-01-19T19:13:21.730Z,99135.34
2023-01-19T19:16:11.416Z,99133.34
2023-01-19T19:19:00.356Z,99135.03
2023-01-19T19:21:48.908Z,99143.94
2023-01-19T19:24:36.884Z,99140.06
2023-01-19T19:27:27.265Z,99131.56
2023-01-19T19:30:15.890Z,99136.78
2023-01-19T19:33:03.926Z,99143.31
2023-01-19T19:35:57.373Z,99139.69
2023-01-19T19:38:47.437Z,99138.22
2023-01-19T19:41:37.209Z,99143.59
2023-01-19T19:44:26.504Z,99135.63
2023-01-19T19:47:14.439Z,99146.44
2023-01-19T19:50:02.323Z,99146.59
2023-01-19T19:52:50.229Z,99154.84
2023-01-19T19:55:38.132Z,99152.13
2023-01-19T19:58:26.887Z,99126.03
2023-01-19T20:01:18.409Z,99154.16
2023-01-19T20:04:08.517Z,99154.63
2023-01-19T20:06:56.446Z,99143.31
2023-01-19T20:09:45.224Z,99152.78
2023-01-19T20:12:33.330Z,99157.59
2023-01-19T20:15:21.378Z,99158.94
2023-01-19T20:18:10.652Z,99150.56
2023-01-19T20:20:58.917Z,99158.28
2023-01-19T20:23:47.900Z,99163.91
2023-01-19T20:26:39.996Z,99164.56
2023-01-19T20:29:28.058Z,99170.34
2023-01-19T20:32:16.027Z,99157.88
2023-01-19T20:35:06.119Z,99162.28
2023-01-19T20:37:54.113Z,99165.47
2023-01-19T20:40:42.057Z,99157.50
2023-01-19T20:43:31.154Z,99167.44
2023-01-19T20:46:19.700Z,99168.09
2023-01-19T20:49:07.959Z,99164.94
2023-01-19T20:51:57.243Z,99169.31
2023-01-19T20:54:45.231Z,99166.28
2023-01-19T20:57:33.187Z,99161.97
2023-01-19T21:00:21.733Z,99164.84
2023-01-19T21:03:09.681Z,99165.28
2023-01-19T21:05:59.577Z,99177.44
2023-01-19T21:08:50.418Z,99178.44
2023-01-19T21:11:39.716Z,99170.78
2023-01-19T21:14:27.957Z,99181.28
2023-01-19T21:17:15.869Z,99179.50
2023-01-19T21:20:04.184Z,99181.41
2023-01-19T21:22:52.405Z,99184.19
2023-01-19T21:25:49.257Z,99187.63
2023-01-19T21:28:37.266Z,99189.41
2023-01-19T21:31:27.591Z,99188.28
2023-01-19T21:34:16.037Z,99192.91
2023-01-19T21:37:03.979Z,99183.63
2023-01-19T21:39:51.927Z,99195.69
2023-01-19T21:42:41.651Z,99192.16
2023-01-19T21:45:29.630Z,99194.28
2023-01-19T21:48:18.312Z,99203.19
2023-01-19T21:51:06.752Z,99200.41
2023-01-19T21:53:59.202Z,99199.16
2023-01-19T21:56:47.151Z,99201.19
2023-01-19T21:59:36.445Z,99206.88
2023-01-19T22:02:37.860Z,99209.38
2023-01-19T22:05:26.609Z,99210.22
2023-01-19T22:08:14.604Z,99214.41
2023-01-19T22:11:06.282Z,99219.94
2023-01-19T22:13:55.018Z,99218.63
2023-01-19T22:16:44.328Z,99219.28
2023-01-19T22:19:32.308Z,99225.25
2023-01-19T22:22:20.248Z,99217.91
2023-01-19T22:25:08.790Z,99231.59
2023-01-19T22:27:58.615Z,99230.41
2023-01-19T22:30:46.695Z,99229.47
2023-01-19T22:33:36.722Z,99235.28
2023-01-19T22:36:26.074Z,99236.84
2023-01-19T22:39:14.267Z,99238.78
2023-01-19T22:42:02.250Z,99244.19
2023-01-19T22:44:50.226Z,99239.50
2023-01-19T22:47:38.173Z,99245.50
2023-01-19T22:50:27.498Z,99249.75
2023-01-19T22:53:15.480Z,99240.09
2023-01-19T22:56:11.676Z,99243.72
2023-01-19T22:59:00.668Z,99245.81
2023-01-19T23:01:50.407Z,99247.34
2023-01-19T23:04:39.433Z,99235.72
2023-01-19T23:07:28.705Z,99240.63
2023-01-19T23:10:17.336Z,99239.63
2023-01-19T23:13:05.251Z,99238.06
2023-01-19T23:15:53.271Z,99246.34
2023-01-19T23:18:42.565Z,99246.75
2023-01-19T23:21:32.285Z,99245.97
2023-01-19T23:24:21.625Z,99249.47
2023-01-19T23:27:11.054Z,99246.56
2023-01-19T23:29:59.027Z,99248.81
2023-01-19T23:32:50.620Z,99245.13
2023-01-19T23:35:38.573Z,99257.09
2023-01-19T23:38:26.556Z,99263.06
2023-01-19T23:41:15.918Z,99243.94
2023-01-19T23:44:04.148Z,99247.09
2023-01-19T23:46:52.234Z,99260.72
2023-01-19T23:49:40.364Z,99264.75
2023-01-19T23:52:28.385Z,99262.81
2023-01-19T23:55:16.932Z,99262.16
2023-01-19T23:58:06.213Z,99260.91
